Terminal Aerodrome Forecast
Issued by NWS La Crosse, WI

Home | Current Version | Previous Version | Text Only | Print | Product List | Glossary On
Versions: 1 2 3 4 5 6 7 8 9 10 11 12 13 14 15 16 17 18 19 20 21 22 23 24 25 26 27 28
000
FTUS43 KARX 040252 AAB
TAFLSE
TAF AMD
KLSE 040252Z 0403/0424 36010KT 5SM SHRA VCTS OVC060CB
     FM040500 35007KT P6SM BKN070
     FM040900 36008KT P6SM SCT040 BKN080=

USA.gov is the U.S. government's official web portal to all federal, state and local government web resources and services.